Time;durP1;ratioP1;P1;durP2;ratioP2;P2;SDS_P1;SDS_P2;PMS_P1;PMS_P2;Temp;Humidity;BMP_temperature;BMP_pressure;BME280_temperature;BME280_humidity;BME280_pressure;Samples;Min_cycle;Max_cycle;Signal;HPM_P1;HPM_P2
2022/08/02 00:00:42;;;;;;;6.68;5.80;;;18.00;99.90;;;;;;5056286;28;20455;-78
2022/08/02 00:03:09;;;;;;;7.40;5.80;;;17.80;99.90;;;;;;5056689;28;20435;-78
2022/08/02 00:05:36;;;;;;;8.63;6.07;;;17.90;99.90;;;;;;5038080;28;20040;-78
2022/08/02 00:08:04;;;;;;;6.00;5.40;;;17.80;99.90;;;;;;5039471;28;20071;-78
2022/08/02 00:10:32;;;;;;;8.18;5.63;;;17.70;99.90;;;;;;5056931;28;20049;-78
2022/08/02 00:12:59;;;;;;;8.30;6.20;;;17.70;99.90;;;;;;5056900;28;20385;-79
2022/08/02 00:15:26;;;;;;;8.80;5.70;;;17.70;99.90;;;;;;5038966;28;20049;-78
2022/08/02 00:17:55;;;;;;;8.95;6.10;;;17.70;99.90;;;;;;5056537;28;20040;-79
2022/08/02 00:20:22;;;;;;;7.78;6.32;;;17.70;99.90;;;;;;5056215;28;20025;-79
2022/08/02 00:22:50;;;;;;;7.03;6.20;;;17.60;99.90;;;;;;5038638;28;20502;-79
2022/08/02 00:25:17;;;;;;;9.35;6.30;;;17.60;99.90;;;;;;5056548;28;20074;-78
2022/08/02 00:27:44;;;;;;;14.38;6.47;;;17.60;99.90;;;;;;5057071;28;20037;-79
2022/08/02 00:30:12;;;;;;;10.63;6.15;;;17.70;99.90;;;;;;5053889;28;20036;-79
2022/08/02 00:32:40;;;;;;;9.07;5.60;;;17.70;99.90;;;;;;5075057;28;20045;-78
2022/08/02 00:35:09;;;;;;;8.38;5.82;;;17.70;99.90;;;;;;5072132;28;20049;-79
2022/08/02 00:37:39;;;;;;;7.90;6.18;;;17.70;99.90;;;;;;5057099;28;20450;-78
2022/08/02 00:40:08;;;;;;;7.78;5.38;;;17.60;99.90;;;;;;5063002;28;20060;-77
2022/08/02 00:42:35;;;;;;;7.25;5.50;;;17.50;99.90;;;;;;5057295;28;20045;-79
2022/08/02 00:45:03;;;;;;;9.07;6.07;;;17.50;99.90;;;;;;5056472;28;20068;-79
2022/08/02 00:47:30;;;;;;;6.65;5.80;;;17.50;99.90;;;;;;5038398;28;20041;-77
2022/08/02 00:49:57;;;;;;;6.57;5.88;;;17.50;99.90;;;;;;5057591;28;20162;-78
2022/08/02 00:52:26;;;;;;;9.65;6.88;;;17.50;99.90;;;;;;5055710;28;20060;-79
2022/08/02 00:54:53;;;;;;;8.70;5.55;;;17.50;99.90;;;;;;5060606;28;20095;-77
2022/08/02 00:57:20;;;;;;;6.68;5.70;;;17.50;99.90;;;;;;5066824;28;20052;-77
2022/08/02 00:59:48;;;;;;;8.23;5.65;;;17.40;99.90;;;;;;5064613;28;20063;-78
2022/08/02 01:02:15;;;;;;;7.78;5.57;;;17.40;99.90;;;;;;5076934;28;20021;-77
2022/08/02 01:04:42;;;;;;;7.20;5.38;;;17.30;99.90;;;;;;5067140;28;20071;-77
2022/08/02 01:07:09;;;;;;;7.75;6.30;;;17.30;99.90;;;;;;5058783;28;20068;-78
2022/08/02 01:09:38;;;;;;;9.48;6.10;;;17.30;99.90;;;;;;5056611;28;20086;-78
2022/08/02 01:12:06;;;;;;;7.28;6.10;;;17.30;99.90;;;;;;5055420;28;20396;-79
2022/08/02 01:14:33;;;;;;;7.75;6.95;;;17.30;99.90;;;;;;5038059;28;20048;-78
2022/08/02 01:17:06;;;;;;;8.18;5.80;;;17.30;99.90;;;;;;5058775;28;20063;-78
2022/08/02 01:19:40;;;;;;;8.48;6.15;;;17.20;99.90;;;;;;5038842;28;20044;-77
2022/08/02 01:22:24;;;;;;;7.38;6.28;;;17.20;99.90;;;;;;5055795;28;20049;-78
2022/08/02 01:25:10;;;;;;;6.30;5.53;;;17.10;99.90;;;;;;5037140;28;20605;-77
2022/08/02 01:27:46;;;;;;;9.05;5.82;;;17.10;99.90;;;;;;5036452;28;20049;-78
2022/08/02 01:30:17;;;;;;;6.85;5.65;;;17.00;99.90;;;;;;5019183;28;20080;-77
2022/08/02 01:32:53;;;;;;;8.40;6.53;;;17.00;99.90;;;;;;5035078;28;20072;-77
2022/08/02 01:35:26;;;;;;;9.15;6.40;;;17.00;99.90;;;;;;5020058;28;20571;-78
2022/08/02 01:37:58;;;;;;;7.07;6.20;;;17.00;99.90;;;;;;5055214;28;20063;-77
2022/08/02 01:40:30;;;;;;;7.95;6.18;;;17.00;99.90;;;;;;5036775;28;20055;-78
2022/08/02 01:42:58;;;;;;;9.60;6.10;;;16.90;99.90;;;;;;5054726;28;20102;-78
2022/08/02 01:45:32;;;;;;;7.43;6.18;;;16.90;99.90;;;;;;5054769;28;20063;-80
2022/08/02 01:48:00;;;;;;;9.52;6.75;;;16.80;99.90;;;;;;5054771;28;20123;-77
2022/08/02 01:50:32;;;;;;;8.15;6.63;;;16.80;99.90;;;;;;5054285;28;20033;-79
2022/08/02 01:53:20;;;;;;;6.68;5.72;;;16.80;99.90;;;;;;5054384;28;20515;-78
2022/08/02 01:55:51;;;;;;;6.20;5.63;;;16.80;99.90;;;;;;5046619;28;20042;-78
2022/08/02 01:58:20;;;;;;;9.98;6.60;;;16.70;99.90;;;;;;5046514;28;20041;-79
2022/08/02 02:00:50;;;;;;;9.25;6.13;;;16.70;99.90;;;;;;5044798;28;20128;-78
2022/08/02 02:03:22;;;;;;;8.38;6.43;;;16.70;99.90;;;;;;5040310;28;20050;-79
2022/08/02 02:05:51;;;;;;;11.70;6.32;;;16.70;99.90;;;;;;5035581;28;20519;-77
2022/08/02 02:08:25;;;;;;;11.70;6.00;;;16.60;99.90;;;;;;5045089;28;20412;-78
2022/08/02 02:10:54;;;;;;;6.95;5.95;;;16.60;99.90;;;;;;5054254;28;20048;-79
2022/08/02 02:13:22;;;;;;;8.18;6.70;;;16.50;99.90;;;;;;5054428;28;20049;-79
2022/08/02 02:15:52;;;;;;;10.40;6.18;;;16.50;99.90;;;;;;5055043;28;20037;-78
2022/08/02 02:18:23;;;;;;;8.52;6.10;;;16.50;99.90;;;;;;5054555;28;20037;-78
2022/08/02 02:20:51;;;;;;;7.57;5.78;;;16.50;99.90;;;;;;5036312;28;20045;-79
2022/08/02 02:23:19;;;;;;;9.18;6.40;;;16.50;99.90;;;;;;5036077;28;20072;-77
2022/08/02 02:25:47;;;;;;;9.27;6.20;;;16.50;99.90;;;;;;5054104;28;20037;-79
2022/08/02 02:28:21;;;;;;;10.45;6.82;;;16.40;99.90;;;;;;5054789;28;20098;-78
2022/08/02 02:30:55;;;;;;;8.90;6.47;;;16.40;99.90;;;;;;5034636;28;20037;-81
2022/08/02 02:33:24;;;;;;;8.13;6.90;;;16.40;99.90;;;;;;5034488;28;20461;-79
2022/08/02 02:35:53;;;;;;;12.52;6.82;;;16.40;99.90;;;;;;5040293;28;20041;-79
2022/08/02 02:38:22;;;;;;;9.73;6.75;;;16.40;99.90;;;;;;5054585;28;20041;-79
2022/08/02 02:40:49;;;;;;;9.20;6.13;;;16.40;99.90;;;;;;5054190;28;20123;-79
2022/08/02 02:43:18;;;;;;;6.60;5.90;;;16.40;99.90;;;;;;5036180;28;20045;-78
2022/08/02 02:45:46;;;;;;;7.15;6.45;;;16.40;99.90;;;;;;5054411;28;20554;-79
2022/08/02 02:48:17;;;;;;;9.10;6.28;;;16.40;99.90;;;;;;5054467;28;20446;-79
2022/08/02 02:50:45;;;;;;;7.50;6.70;;;16.30;99.90;;;;;;5054305;28;20451;-78
2022/08/02 02:53:16;;;;;;;7.60;6.30;;;16.30;99.90;;;;;;5054377;28;20037;-79
2022/08/02 02:55:44;;;;;;;11.23;6.88;;;16.20;99.90;;;;;;5045769;28;20132;-77
2022/08/02 02:58:12;;;;;;;8.68;6.50;;;16.20;99.90;;;;;;5054207;28;20052;-79
2022/08/02 03:03:26;;;;;;;8.88;6.40;;;16.20;99.90;;;;;;5054812;28;20124;-79
2022/08/02 03:05:53;;;;;;;8.98;6.15;;;16.10;99.90;;;;;;5054556;28;20140;-79
2022/08/02 03:08:21;;;;;;;9.90;6.30;;;16.20;99.90;;;;;;5036329;28;20114;-78
2022/08/02 03:10:48;;;;;;;8.63;6.45;;;16.10;99.90;;;;;;5053715;28;20103;-79
2022/08/02 03:13:17;;;;;;;9.05;6.80;;;16.10;99.90;;;;;;5056265;28;20048;-79
2022/08/02 03:15:47;;;;;;;9.20;7.43;;;16.00;99.90;;;;;;5054280;28;20056;-79
2022/08/02 03:18:31;;;;;;;8.50;6.85;;;16.00;99.90;;;;;;5054313;28;20087;-78
2022/08/02 03:21:02;;;;;;;8.30;7.40;;;16.00;99.90;;;;;;5054069;28;20041;-78
2022/08/02 03:23:30;;;;;;;7.47;6.43;;;16.00;99.90;;;;;;5036346;28;20076;-79
2022/08/02 03:25:57;;;;;;;8.68;6.97;;;16.00;99.90;;;;;;5054812;28;20458;-80
2022/08/02 03:28:25;;;;;;;9.77;6.65;;;15.90;99.90;;;;;;5055415;28;20040;-80
2022/08/02 03:30:52;;;;;;;7.65;6.85;;;16.00;99.90;;;;;;5074823;28;20093;-81
2022/08/02 03:33:20;;;;;;;9.15;7.43;;;15.90;99.90;;;;;;5074804;28;20040;-80
2022/08/02 03:35:51;;;;;;;11.15;8.68;;;15.90;99.90;;;;;;5072006;28;20048;-80
2022/08/02 03:38:20;;;;;;;12.98;8.30;;;15.90;99.90;;;;;;5058238;28;20083;-79
2022/08/02 03:40:48;;;;;;;9.23;7.55;;;16.00;99.90;;;;;;5059760;28;20102;-81
2022/08/02 03:43:16;;;;;;;8.63;7.03;;;16.00;99.90;;;;;;5060891;28;20041;-79
2022/08/02 03:45:46;;;;;;;9.45;7.07;;;16.00;99.90;;;;;;5045953;28;20075;-79
2022/08/02 03:48:14;;;;;;;11.23;6.95;;;16.00;99.90;;;;;;5065087;28;20077;-80
2022/08/02 03:50:43;;;;;;;13.00;6.88;;;16.00;99.90;;;;;;5043004;28;20403;-80
2022/08/02 03:53:12;;;;;;;14.77;7.30;;;16.00;99.90;;;;;;5059641;28;20052;-78
2022/08/02 03:55:40;;;;;;;10.10;7.63;;;16.00;99.90;;;;;;5040713;28;20079;-80
2022/08/02 03:58:08;;;;;;;8.10;7.30;;;16.00;99.90;;;;;;5060560;28;20037;-81
2022/08/02 04:00:35;;;;;;;8.63;7.03;;;16.10;99.90;;;;;;5060595;28;20045;-79
2022/08/02 04:03:02;;;;;;;10.35;7.63;;;16.20;99.90;;;;;;5059970;28;20193;-79
2022/08/02 04:05:29;;;;;;;8.70;6.72;;;16.60;99.90;;;;;;5059971;28;20056;-79
2022/08/02 04:07:57;;;;;;;8.98;6.63;;;17.10;99.90;;;;;;5058063;28;20047;-78
2022/08/02 04:10:26;;;;;;;11.57;9.45;;;17.60;99.90;;;;;;5039966;28;20429;-78
2022/08/02 04:12:54;;;;;;;14.20;8.25;;;18.10;99.90;;;;;;5057854;28;20045;-81
2022/08/02 04:15:23;;;;;;;15.15;9.45;;;18.70;99.90;;;;;;5060018;28;20049;-80
2022/08/02 04:17:55;;;;;;;12.18;8.18;;;19.00;99.90;;;;;;5049650;28;20079;-80
2022/08/02 04:20:29;;;;;;;11.23;7.30;;;19.30;99.90;;;;;;5079855;28;20037;-80
2022/08/02 04:23:00;;;;;;;12.88;6.45;;;20.00;99.90;;;;;;5067280;28;20457;-80
2022/08/02 04:25:31;;;;;;;8.48;6.00;;;20.30;99.90;;;;;;5041228;28;20049;-77
2022/08/02 04:28:00;;;;;;;11.27;6.05;;;20.70;99.90;;;;;;5058191;28;20541;-77
2022/08/02 04:30:29;;;;;;;10.32;6.10;;;21.20;99.90;;;;;;5057120;28;20495;-77
2022/08/02 04:32:56;;;;;;;8.52;5.47;;;21.50;99.90;;;;;;5077107;28;20510;-77
2022/08/02 04:35:24;;;;;;;9.88;6.00;;;21.80;99.90;;;;;;5076203;28;20098;-77
2022/08/02 04:37:52;;;;;;;10.98;5.40;;;22.10;99.90;;;;;;5042498;28;20060;-77
2022/08/02 04:40:19;;;;;;;11.68;6.28;;;22.20;99.90;;;;;;5056708;28;20053;-78
2022/08/02 04:42:48;;;;;;;13.05;6.32;;;23.00;99.90;;;;;;5038951;28;20057;-77
2022/08/02 04:45:16;;;;;;;10.15;5.18;;;23.40;99.90;;;;;;5056583;28;20454;-78
2022/08/02 04:47:43;;;;;;;10.38;6.05;;;23.70;99.90;;;;;;5056635;28;20045;-78
2022/08/02 04:50:11;;;;;;;8.77;4.65;;;24.10;99.90;;;;;;5055986;28;20236;-77
2022/08/02 04:52:38;;;;;;;11.00;5.45;;;23.90;99.90;;;;;;5056321;28;20602;-77
2022/08/02 04:55:06;;;;;;;11.32;5.90;;;23.50;99.90;;;;;;5056971;28;20397;-76
2022/08/02 05:00:19;;;;;;;11.68;6.13;;;21.80;99.90;;;;;;5056594;28;20143;-76
2022/08/02 05:02:47;;;;;;;18.75;8.30;;;21.30;99.90;;;;;;5038891;28;20074;-77
2022/08/02 05:05:14;;;;;;;13.75;7.30;;;20.90;99.90;;;;;;5056973;28;20439;-77
2022/08/02 05:07:42;;;;;;;16.60;6.82;;;20.40;99.90;;;;;;5038321;28;20045;-78
2022/08/02 05:10:10;;;;;;;15.07;9.43;;;20.20;99.90;;;;;;5055654;28;20041;-76
2022/08/02 05:12:38;;;;;;;20.23;12.57;;;20.40;99.90;;;;;;5055982;28;20052;-77
2022/08/02 05:15:06;;;;;;;11.82;7.90;;;20.50;99.90;;;;;;5059547;28;20591;-77
2022/08/02 05:17:35;;;;;;;12.38;7.57;;;20.80;99.90;;;;;;5056616;28;20048;-77
2022/08/02 05:20:03;;;;;;;12.32;7.90;;;21.00;99.90;;;;;;5040361;28;20048;-76
2022/08/02 05:22:30;;;;;;;13.30;6.95;;;21.30;99.90;;;;;;5039078;28;20097;-75
2022/08/02 05:24:57;;;;;;;14.85;9.05;;;22.10;99.90;;;;;;5038630;28;20049;-78
2022/08/02 05:27:25;;;;;;;15.57;7.75;;;22.70;99.90;;;;;;5039437;28;20128;-77
2022/08/02 05:29:53;;;;;;;11.90;7.43;;;23.10;99.90;;;;;;5057486;28;20349;-78
2022/08/02 05:32:20;;;;;;;10.77;6.28;;;23.60;99.90;;;;;;5056296;28;20068;-76
2022/08/02 05:34:49;;;;;;;11.68;6.10;;;24.20;99.90;;;;;;5040121;28;20072;-76
2022/08/02 05:37:16;;;;;;;16.65;7.97;;;24.70;99.90;;;;;;5057071;28;20492;-78
2022/08/02 05:39:44;;;;;;;13.60;7.82;;;24.70;99.90;;;;;;5055229;28;20057;-77
2022/08/02 05:42:11;;;;;;;9.25;6.43;;;24.50;99.90;;;;;;5038150;28;20041;-78
2022/08/02 05:44:38;;;;;;;12.65;6.75;;;24.70;99.90;;;;;;5056009;28;20047;-76
2022/08/02 05:47:06;;;;;;;17.95;7.40;;;24.60;99.90;;;;;;5055003;28;20040;-77
2022/08/02 05:49:33;;;;;;;16.33;9.05;;;24.20;99.90;;;;;;5056132;28;20045;-77
2022/08/02 05:52:07;;;;;;;17.70;8.77;;;24.20;99.90;;;;;;5036737;28;20472;-77
2022/08/02 05:54:39;;;;;;;23.45;11.90;;;24.30;99.90;;;;;;5053857;28;20063;-76
2022/08/02 05:57:16;;;;;;;20.63;9.20;;;24.20;99.90;;;;;;5052141;28;20045;-76
2022/08/02 05:59:53;;;;;;;19.50;11.40;;;24.20;99.90;;;;;;5056470;28;20041;-78
2022/08/02 06:02:28;;;;;;;18.70;11.75;;;24.30;99.90;;;;;;5057082;28;20049;-77
2022/08/02 06:05:04;;;;;;;21.30;12.27;;;24.30;99.90;;;;;;5056635;28;20073;-78
2022/08/02 06:07:36;;;;;;;30.80;14.00;;;24.10;99.90;;;;;;5036947;28;20037;-79
2022/08/02 06:10:04;;;;;;;23.00;14.90;;;24.30;99.90;;;;;;5018978;28;20056;-78
2022/08/02 06:12:33;;;;;;;24.90;15.60;;;24.40;99.90;;;;;;5031286;28;20114;-77
2022/08/02 06:15:02;;;;;;;30.50;16.38;;;24.30;99.90;;;;;;5037923;28;20037;-76
2022/08/02 06:17:31;;;;;;;21.75;15.07;;;24.10;99.90;;;;;;5056977;28;20045;-77
2022/08/02 06:19:59;;;;;;;20.05;14.77;;;24.30;99.90;;;;;;5039330;28;20555;-79
2022/08/02 06:22:28;;;;;;;21.88;14.65;;;24.80;99.90;;;;;;5056950;28;20055;-79
2022/08/02 06:24:58;;;;;;;25.35;13.98;;;25.20;99.90;;;;;;5057898;28;20033;-78
2022/08/02 06:27:28;;;;;;;20.52;13.40;;;25.50;99.90;;;;;;5039045;28;20079;-79
2022/08/02 06:29:56;;;;;;;20.25;13.27;;;25.90;99.90;;;;;;5071177;28;20056;-77
2022/08/02 06:32:23;;;;;;;17.33;12.65;;;26.00;99.90;;;;;;5056266;28;20078;-78
2022/08/02 06:34:50;;;;;;;18.23;12.80;;;26.30;99.90;;;;;;5056919;28;20103;-80
2022/08/02 06:37:26;;;;;;;14.20;11.57;;;26.50;99.90;;;;;;5056759;28;20171;-79
2022/08/02 06:40:05;;;;;;;14.27;11.45;;;26.70;99.90;;;;;;5055148;28;20049;-79
2022/08/02 06:42:44;;;;;;;16.67;10.77;;;27.10;99.90;;;;;;5055940;28;20500;-79
2022/08/02 06:45:11;;;;;;;15.68;9.75;;;26.80;99.90;;;;;;5055183;28;20037;-77
2022/08/02 06:47:38;;;;;;;25.15;20.00;;;27.00;99.90;;;;;;5055103;28;20064;-78
2022/08/02 06:50:06;;;;;;;16.95;12.20;;;27.00;99.90;;;;;;5056155;28;20065;-79
2022/08/02 06:52:34;;;;;;;19.58;14.23;;;27.10;99.90;;;;;;5056942;28;20381;-78
2022/08/02 06:55:05;;;;;;;16.88;11.63;;;27.30;99.90;;;;;;5056078;28;20041;-79
2022/08/02 06:57:33;;;;;;;17.83;10.43;;;27.40;99.90;;;;;;5057085;28;20049;-79
2022/08/02 07:00:03;;;;;;;20.17;12.15;;;27.60;99.90;;;;;;5057341;28;20042;-78
2022/08/02 07:02:31;;;;;;;12.32;9.65;;;27.60;99.90;;;;;;5039013;28;20515;-78
2022/08/02 07:05:00;;;;;;;22.25;12.10;;;27.20;99.90;;;;;;5040579;28;20095;-78
2022/08/02 07:07:28;;;;;;;16.88;10.02;;;27.20;99.90;;;;;;5058800;28;20041;-80
2022/08/02 07:09:55;;;;;;;20.27;11.25;;;27.20;99.90;;;;;;5059262;28;20041;-80
2022/08/02 07:12:24;;;;;;;16.80;10.23;;;27.20;99.90;;;;;;5062487;28;20037;-80
2022/08/02 07:14:51;;;;;;;18.52;12.55;;;27.10;99.90;;;;;;5061779;28;20087;-79
2022/08/02 07:17:19;;;;;;;21.10;10.07;;;26.80;99.90;;;;;;5044940;28;20098;-78
2022/08/02 07:19:46;;;;;;;19.05;10.68;;;26.70;99.90;;;;;;5044102;28;20055;-79
2022/08/02 07:22:13;;;;;;;22.08;11.57;;;26.70;99.90;;;;;;5046174;28;20037;-80
2022/08/02 07:24:41;;;;;;;22.30;12.93;;;26.70;99.90;;;;;;5048479;28;20059;-78
2022/08/02 07:27:08;;;;;;;19.80;12.25;;;26.70;99.90;;;;;;5073290;28;20040;-78
2022/08/02 07:29:36;;;;;;;20.42;11.57;;;26.70;99.90;;;;;;5044371;28;20045;-78
2022/08/02 07:32:04;;;;;;;20.58;10.57;;;26.90;99.90;;;;;;5071776;28;20095;-78
2022/08/02 07:34:31;;;;;;;16.73;10.80;;;27.00;99.90;;;;;;5090422;28;20048;-78
2022/08/02 07:36:59;;;;;;;18.00;12.77;;;27.40;99.90;;;;;;5063709;28;20088;-77
2022/08/02 07:39:26;;;;;;;19.25;11.65;;;27.50;99.90;;;;;;5073384;28;20048;-78
2022/08/02 07:41:53;;;;;;;18.35;12.07;;;27.80;99.90;;;;;;5068501;28;20029;-80
2022/08/02 07:44:22;;;;;;;28.13;18.67;;;27.80;99.90;;;;;;5060792;28;20037;-80
2022/08/02 07:46:50;;;;;;;18.80;11.70;;;27.90;99.90;;;;;;5061238;28;20051;-80
2022/08/02 07:49:18;;;;;;;16.15;10.70;;;28.10;99.90;;;;;;5060490;28;20049;-78
2022/08/02 07:51:45;;;;;;;14.75;10.32;;;28.30;99.90;;;;;;5061243;28;20041;-78
2022/08/02 07:54:13;;;;;;;22.10;10.75;;;28.40;99.90;;;;;;5059590;28;20087;-79
2022/08/02 07:56:40;;;;;;;23.65;13.02;;;28.50;99.90;;;;;;5073183;28;20113;-78
2022/08/02 07:59:09;;;;;;;13.13;10.23;;;28.60;99.90;;;;;;5079596;28;20048;-79
2022/08/02 08:01:36;;;;;;;16.25;11.13;;;28.50;99.90;;;;;;5073999;28;20036;-78
2022/08/02 08:04:05;;;;;;;14.23;9.93;;;28.30;99.90;;;;;;5040593;28;20128;-77
2022/08/02 08:06:33;;;;;;;18.23;9.73;;;28.20;99.90;;;;;;5057380;28;20109;-77
2022/08/02 08:09:00;;;;;;;19.10;11.15;;;28.10;99.90;;;;;;5039904;28;20053;-78
2022/08/02 08:11:27;;;;;;;16.98;11.52;;;28.40;99.90;;;;;;5059558;28;20106;-79
2022/08/02 08:13:55;;;;;;;19.90;11.05;;;28.70;99.90;;;;;;5075163;28;20117;-78
2022/08/02 08:16:27;;;;;;;20.70;11.05;;;28.90;99.90;;;;;;5058656;28;20032;-79
2022/08/02 08:18:55;;;;;;;18.38;11.98;;;29.20;99.90;;;;;;5059634;28;20041;-78
2022/08/02 08:21:23;;;;;;;17.23;10.60;;;29.20;99.90;;;;;;5042301;28;20047;-77
2022/08/02 08:23:51;;;;;;;19.00;10.85;;;29.00;99.90;;;;;;5043781;28;20053;-78
2022/08/02 08:26:18;;;;;;;14.82;9.50;;;29.30;99.90;;;;;;5062276;28;20037;-79
2022/08/02 08:28:45;;;;;;;14.93;8.25;;;29.30;99.90;;;;;;5050159;28;20041;-79
2022/08/02 08:31:13;;;;;;;10.82;7.75;;;29.30;99.90;;;;;;5066230;28;20108;-80
2022/08/02 08:33:40;;;;;;;12.52;8.73;;;29.20;99.90;;;;;;5069911;28;20041;-79
2022/08/02 08:36:08;;;;;;;9.23;6.40;;;29.40;99.90;;;;;;5072791;28;20060;-79
2022/08/02 08:38:37;;;;;;;9.73;6.07;;;29.40;99.90;;;;;;5071272;28;20127;-79
2022/08/02 08:41:05;;;;;;;14.00;9.27;;;29.70;99.90;;;;;;5063549;28;20103;-79
2022/08/02 08:43:32;;;;;;;10.07;6.97;;;30.00;99.90;;;;;;5058642;28;20041;-79
2022/08/02 08:45:59;;;;;;;12.13;7.45;;;29.90;99.90;;;;;;5057742;28;20064;-83
2022/08/02 08:48:29;;;;;;;8.40;6.20;;;30.10;99.90;;;;;;5058701;28;20037;-80
2022/08/02 08:51:00;;;;;;;10.98;6.18;;;30.20;99.90;;;;;;5059931;28;20055;-77
2022/08/02 08:53:31;;;;;;;13.38;6.60;;;30.10;99.90;;;;;;5059608;28;20052;-79
2022/08/02 08:56:01;;;;;;;9.63;6.15;;;30.40;99.90;;;;;;5029059;28;20053;-79
2022/08/02 08:58:28;;;;;;;8.40;6.10;;;30.20;99.90;;;;;;5059024;28;20072;-78
2022/08/02 09:00:55;;;;;;;13.98;7.43;;;30.10;99.90;;;;;;5058623;28;20106;-77
2022/08/02 09:03:23;;;;;;;12.45;7.55;;;30.20;99.90;;;;;;5059178;28;20041;-78
2022/08/02 09:05:50;;;;;;;11.68;8.15;;;30.20;99.90;;;;;;5058674;28;20116;-78
2022/08/02 09:08:18;;;;;;;11.75;7.57;;;30.30;99.90;;;;;;5042087;28;20068;-79
2022/08/02 09:10:47;;;;;;;9.80;6.18;;;30.70;99.30;;;;;;5042421;28;20059;-78
2022/08/02 09:13:19;;;;;;;10.13;6.03;;;30.90;98.20;;;;;;5042622;28;20041;-80
2022/08/02 09:15:53;;;;;;;12.00;7.05;;;30.80;97.70;;;;;;5058646;28;20048;-78
2022/08/02 09:18:21;;;;;;;13.20;8.13;;;30.80;98.50;;;;;;5058309;28;20041;-79
2022/08/02 09:20:59;;;;;;;12.73;6.75;;;30.70;99.90;;;;;;5051523;28;20052;-78
2022/08/02 09:23:33;;;;;;;9.02;5.57;;;30.90;99.90;;;;;;5039975;28;20505;-80
2022/08/02 09:26:03;;;;;;;11.85;6.35;;;31.10;97.70;;;;;;5021613;28;20053;-79
2022/08/02 09:28:35;;;;;;;9.90;5.65;;;31.30;97.00;;;;;;5042650;28;20377;-77
2022/08/02 09:31:06;;;;;;;8.82;5.60;;;31.40;96.60;;;;;;5062670;28;20051;-79
2022/08/02 09:33:34;;;;;;;10.38;5.88;;;31.30;96.40;;;;;;5046183;28;20049;-78
2022/08/02 09:36:03;;;;;;;7.93;5.25;;;31.40;95.60;;;;;;5040229;28;20484;-79
2022/08/02 09:38:31;;;;;;;7.88;5.25;;;31.00;95.90;;;;;;5046004;28;20049;-80
2022/08/02 09:40:59;;;;;;;5.47;3.88;;;30.90;96.70;;;;;;5044948;22;20405;-74
2022/08/02 09:43:42;;;;;;;8.63;5.75;;;31.10;93.70;;;;;;5015593;28;20065;-76
2022/08/02 09:46:16;;;;;;;4.85;2.50;;;30.90;92.70;;;;;;5015782;28;20404;-75
2022/08/02 09:48:49;;;;;;;10.73;5.10;;;30.80;91.70;;;;;;5016377;28;20053;-75
2022/08/02 09:51:22;;;;;;;7.63;2.92;;;30.60;91.50;;;;;;5028693;28;20045;-76
2022/08/02 09:53:52;;;;;;;4.85;3.10;;;30.50;89.10;;;;;;5048160;28;20139;-75
2022/08/02 09:56:19;;;;;;;8.93;6.97;;;30.60;89.00;;;;;;5050003;28;20049;-76
2022/08/02 09:58:51;;;;;;;8.20;3.20;;;30.60;90.10;;;;;;5052375;28;20110;-75
2022/08/02 10:01:20;;;;;;;6.55;3.80;;;30.80;90.50;;;;;;5043590;28;20041;-75
2022/08/02 10:03:58;;;;;;;9.00;4.68;;;30.90;90.80;;;;;;5031685;28;20042;-74
2022/08/02 10:06:26;;;;;;;9.27;4.38;;;31.10;90.40;;;;;;5033767;28;20053;-74
2022/08/02 10:08:55;;;;;;;7.57;3.20;;;31.30;90.60;;;;;;5033793;28;20095;-74
2022/08/02 10:11:23;;;;;;;12.25;3.60;;;31.10;90.70;;;;;;5036602;28;20056;-73
2022/08/02 10:13:52;;;;;;;4.88;3.78;;;31.10;88.90;;;;;;5044559;28;20045;-75
2022/08/02 10:16:22;;;;;;;5.78;3.38;;;31.30;89.60;;;;;;5046547;28;20045;-75
2022/08/02 10:18:51;;;;;;;18.15;4.30;;;31.50;87.40;;;;;;5049171;28;20053;-75
2022/08/02 10:21:28;;;;;;;3.10;2.63;;;31.70;87.60;;;;;;5044762;28;20044;-75
2022/08/02 10:24:05;;;;;;;4.95;2.97;;;31.40;89.40;;;;;;5045443;28;20053;-74
2022/08/02 10:26:33;;;;;;;3.40;2.67;;;31.40;88.10;;;;;;5040388;28;20065;-74
2022/08/02 10:29:02;;;;;;;4.15;2.53;;;31.50;91.60;;;;;;5040326;28;20495;-75
2022/08/02 10:31:37;;;;;;;9.40;2.55;;;31.60;89.80;;;;;;5054100;28;20041;-75
2022/08/02 10:34:07;;;;;;;5.90;2.75;;;31.00;85.10;;;;;;5053298;28;20562;-76
2022/08/02 10:36:36;;;;;;;12.90;7.30;;;30.60;90.90;;;;;;5053112;28;20102;-75
2022/08/02 10:39:05;;;;;;;6.05;2.55;;;30.40;86.30;;;;;;5052722;28;20091;-76
2022/08/02 10:41:43;;;;;;;9.63;5.07;;;30.30;87.60;;;;;;5052836;28;20076;-76
2022/08/02 10:44:20;;;;;;;27.17;6.40;;;30.40;88.00;;;;;;5055172;28;20138;-75
2022/08/02 10:46:48;;;;;;;4.97;3.15;;;30.60;87.70;;;;;;5057211;28;20049;-75
2022/08/02 10:49:17;;;;;;;7.65;3.80;;;31.00;87.30;;;;;;5056974;28;20045;-76
2022/08/02 10:51:58;;;;;;;7.93;6.50;;;31.10;88.50;;;;;;5056892;28;20049;-76
2022/08/02 10:54:27;;;;;;;6.90;5.85;;;31.30;87.60;;;;;;5056066;28;20053;-76
2022/08/02 10:56:57;;;;;;;5.95;3.78;;;31.20;89.10;;;;;;5036961;28;20053;-76
2022/08/02 10:59:27;;;;;;;4.75;2.38;;;31.10;87.70;;;;;;5035642;28;20496;-75
2022/08/02 11:02:01;;;;;;;11.00;3.95;;;31.00;86.80;;;;;;5036706;28;20048;-76
2022/08/02 11:04:32;;;;;;;11.20;4.40;;;31.40;81.40;;;;;;5036539;28;20049;-76
2022/08/02 11:07:12;;;;;;;7.00;2.40;;;31.90;84.10;;;;;;5036952;28;20091;-75
2022/08/02 11:09:40;;;;;;;4.35;2.22;;;31.80;85.00;;;;;;5037305;28;20045;-75
2022/08/02 11:12:09;;;;;;;4.65;2.45;;;32.00;85.90;;;;;;5036225;28;20095;-76
2022/08/02 11:14:40;;;;;;;5.43;3.05;;;32.10;84.80;;;;;;5036433;28;20066;-76
2022/08/02 11:17:15;;;;;;;3.10;2.47;;;32.40;87.60;;;;;;5036333;28;20038;-75
2022/08/02 11:20:15;;;;;;;3.80;2.65;;;32.30;85.40;;;;;;5036600;28;20516;-75
2022/08/02 11:22:44;;;;;;;2.90;2.22;;;32.20;81.00;;;;;;5034731;28;20054;-77
2022/08/02 11:25:33;;;;;;;3.28;2.38;;;32.00;79.40;;;;;;5036569;28;20096;-75
2022/08/02 11:28:09;;;;;;;4.75;2.65;;;31.40;78.20;;;;;;5036576;28;20049;-75
2022/08/02 11:30:38;;;;;;;4.47;2.83;;;31.60;81.30;;;;;;5053503;28;20049;-75
2022/08/02 11:33:06;;;;;;;4.15;2.88;;;31.60;83.70;;;;;;5055830;28;20395;-75
2022/08/02 11:35:38;;;;;;;3.05;2.53;;;31.90;84.50;;;;;;5056383;28;20067;-75
2022/08/02 11:38:20;;;;;;;3.60;2.45;;;32.00;83.90;;;;;;5054889;28;20152;-75
2022/08/02 11:40:49;;;;;;;11.95;3.05;;;32.00;82.60;;;;;;5055934;28;20068;-75
2022/08/02 11:43:22;;;;;;;10.70;4.95;;;32.10;84.60;;;;;;5054610;28;20044;-75
2022/08/02 11:45:52;;;;;;;13.32;3.50;;;32.20;84.20;;;;;;5055663;28;20496;-75
2022/08/02 11:48:33;;;;;;;12.23;2.88;;;32.20;85.40;;;;;;5055832;28;20111;-75
2022/08/02 11:51:09;;;;;;;7.55;2.53;;;31.70;80.80;;;;;;5055564;28;20037;-75
2022/08/02 11:53:45;;;;;;;3.42;2.20;;;31.80;80.00;;;;;;5054202;28;20131;-75
2022/08/02 11:56:13;;;;;;;4.60;2.40;;;31.90;80.20;;;;;;5040534;28;20119;-75
2022/08/02 11:58:40;;;;;;;5.70;2.35;;;31.80;79.50;;;;;;5034538;28;20527;-75
2022/08/02 12:01:09;;;;;;;5.82;2.70;;;32.00;79.20;;;;;;5035525;28;20450;-75
2022/08/02 12:03:38;;;;;;;6.05;2.78;;;32.00;86.80;;;;;;5034120;28;20053;-75
2022/08/02 12:06:06;;;;;;;4.55;2.90;;;31.70;85.80;;;;;;5035323;28;20055;-75
2022/08/02 12:08:36;;;;;;;3.50;2.30;;;31.50;81.80;;;;;;5035270;28;20071;-75
2022/08/02 12:11:04;;;;;;;4.32;2.50;;;31.20;81.80;;;;;;5035515;28;20049;-75
2022/08/02 12:13:43;;;;;;;3.35;2.50;;;31.10;80.60;;;;;;5034762;28;20033;-75
2022/08/02 12:21:43;;;;;;;3.43;2.87;;;31.50;78.60;;;;;;5034973;28;20046;-75
2022/08/02 12:24:11;;;;;;;4.60;3.47;;;31.50;81.00;;;;;;5034910;28;20140;-75
2022/08/02 12:26:43;;;;;;;3.63;2.25;;;31.70;82.00;;;;;;5035181;28;20145;-75
2022/08/02 12:29:11;;;;;;;4.05;2.25;;;31.50;82.60;;;;;;5041952;28;20132;-75
2022/08/02 12:31:46;;;;;;;3.38;2.33;;;30.90;78.50;;;;;;5054738;28;20377;-75
2022/08/02 12:34:16;;;;;;;7.43;2.90;;;30.40;79.20;;;;;;5054938;28;20045;-75
2022/08/02 12:36:44;;;;;;;3.80;2.88;;;30.20;78.90;;;;;;5054947;28;20124;-75
2022/08/02 12:39:13;;;;;;;4.65;3.08;;;30.30;80.70;;;;;;5053713;28;20053;-75
2022/08/02 12:41:41;;;;;;;3.55;2.20;;;30.60;80.30;;;;;;5054801;28;20144;-75
2022/08/02 12:44:16;;;;;;;4.63;2.70;;;30.80;78.90;;;;;;5054699;28;20045;-75
2022/08/02 12:46:58;;;;;;;6.07;3.33;;;31.00;77.30;;;;;;5055145;28;20095;-75
2022/08/02 12:49:25;;;;;;;5.20;2.78;;;31.30;82.20;;;;;;5058771;28;20045;-75
2022/08/02 12:51:52;;;;;;;5.65;4.45;;;31.60;82.20;;;;;;5054774;28;20076;-75
2022/08/02 12:54:21;;;;;;;6.28;3.67;;;31.60;79.70;;;;;;5054315;28;20033;-76
2022/08/02 12:56:49;;;;;;;7.10;3.70;;;31.80;82.20;;;;;;5015598;28;20034;-76
2022/08/02 12:59:17;;;;;;;4.60;3.40;;;32.00;80.20;;;;;;5015587;28;20396;-75
2022/08/02 13:01:47;;;;;;;8.80;3.58;;;32.40;83.80;;;;;;5017387;28;20069;-75
2022/08/02 13:04:14;;;;;;;3.70;2.47;;;32.80;84.30;;;;;;5014345;28;20136;-75